createdAt,value
2018-03-23T00:01:38.849Z,95686.05
2018-03-23T00:04:08.327Z,95689.21
2018-03-23T00:06:37.808Z,95682.62
2018-03-23T00:09:06.978Z,95677.13
2018-03-23T00:11:36.828Z,95675.77
2018-03-23T00:14:06.287Z,95675.48
2018-03-23T00:16:36.147Z,95676.56
2018-03-23T00:19:05.620Z,95670.11
2018-03-23T00:21:35.075Z,95672.97
2018-03-23T00:24:04.510Z,95670.13
2018-03-23T00:26:33.964Z,95667.56
2018-03-23T00:29:03.096Z,95664.22
2018-03-23T00:31:32.527Z,95661.12
2018-03-23T00:34:02.384Z,95655.69
2018-03-23T00:36:31.843Z,95656.58
2018-03-23T00:39:01.682Z,95648.05
2018-03-23T00:41:31.130Z,95650.64
2018-03-23T00:44:00.580Z,95646.88
2018-03-23T00:46:30.028Z,95645.07
2018-03-23T00:48:59.694Z,95640.98
2018-03-23T00:51:29.144Z,95639.61
2018-03-23T00:53:58.603Z,95634.89
2018-03-23T00:56:28.058Z,95632.53
2018-03-23T00:58:57.510Z,95636.48
2018-03-23T01:01:26.944Z,95637.41
2018-03-23T01:03:56.192Z,95637.09
2018-03-23T01:06:26.044Z,95626.99
2018-03-23T01:08:56.066Z,95629.69
2018-03-23T01:11:25.519Z,95624.61
2018-03-23T01:13:54.949Z,95625.69
2018-03-23T01:16:24.406Z,95627.65
2018-03-23T01:18:54.051Z,95622.86
2018-03-23T01:21:23.894Z,95621.78
2018-03-23T01:23:53.342Z,95615.80
2018-03-23T01:26:22.786Z,95618.94
2018-03-23T01:28:52.238Z,95614.77
2018-03-23T01:31:21.716Z,95614.80
2018-03-23T01:33:51.175Z,95619.72
2018-03-23T01:36:20.616Z,95612.83
2018-03-23T01:38:50.103Z,95611.78
2018-03-23T01:41:19.957Z,95611.27
2018-03-23T01:43:49.214Z,95611.88
2018-03-23T01:46:19.076Z,95604.19
2018-03-23T01:48:48.743Z,95608.25
2018-03-23T01:51:18.188Z,95606.19
2018-03-23T01:53:47.642Z,95600.09
2018-03-23T01:56:17.490Z,95601.05
2018-03-23T01:58:46.604Z,95595.70
2018-03-23T02:01:16.057Z,95596.72
2018-03-23T02:03:45.918Z,95595.28
2018-03-23T02:06:15.366Z,95593.64
2018-03-23T02:08:45.218Z,95594.62
2018-03-23T02:11:14.676Z,95584.52
2018-03-23T02:13:44.133Z,95581.51
2018-03-23T02:16:13.584Z,95577.51
2018-03-23T02:18:43.019Z,95576.75
2018-03-23T02:21:12.454Z,95576.59
2018-03-23T02:23:41.930Z,95568.39
2018-03-23T02:26:11.953Z,95564.76
2018-03-23T02:28:41.404Z,95562.03
2018-03-23T02:31:10.658Z,95559.31
2018-03-23T02:33:40.102Z,95549.68
2018-03-23T02:36:09.578Z,95556.53
2018-03-23T02:38:39.212Z,95551.81
2018-03-23T02:41:08.330Z,95548.98
2018-03-23T02:43:37.791Z,95548.92
2018-03-23T02:46:07.444Z,95556.30
2018-03-23T02:48:36.892Z,95557.84
2018-03-23T02:51:06.342Z,95557.61
2018-03-23T02:53:35.790Z,95555.22
2018-03-23T02:56:05.129Z,95554.50
2018-03-23T02:58:34.590Z,95559.02
2018-03-23T03:01:03.864Z,95560.20
2018-03-23T03:03:33.316Z,95560.34
2018-03-23T03:06:02.792Z,95551.84
2018-03-23T03:08:32.644Z,95543.87
2018-03-23T03:11:02.090Z,95545.47
2018-03-23T03:13:31.549Z,95541.91
2018-03-23T03:16:00.980Z,95535.93
2018-03-23T03:18:30.256Z,95537.05
2018-03-23T03:20:59.702Z,95530.95
2018-03-23T03:23:29.146Z,95526.39
2018-03-23T03:25:58.617Z,95521.53
2018-03-23T03:28:28.067Z,95526.09
2018-03-23T03:30:57.531Z,95525.86
2018-03-23T03:33:27.385Z,95523.30
2018-03-23T03:35:56.848Z,95521.66
2018-03-23T03:38:26.485Z,95517.14
2018-03-23T03:40:56.167Z,95518.84
2018-03-23T03:43:26.019Z,95519.23
2018-03-23T03:45:55.472Z,95524.69
2018-03-23T03:48:24.932Z,95522.82
2018-03-23T03:50:54.381Z,95521.31
2018-03-23T03:53:23.834Z,95518.19
2018-03-23T03:55:53.303Z,95519.05
2018-03-23T03:58:23.140Z,95522.78
2018-03-23T04:00:52.597Z,95522.54
2018-03-23T04:03:22.055Z,95520.08
2018-03-23T04:05:51.509Z,95520.86
2018-03-23T04:08:20.954Z,95522.85
2018-03-23T04:10:50.406Z,95520.20
2018-03-23T04:13:19.863Z,95517.90
2018-03-23T04:15:49.308Z,95512.86
2018-03-23T04:18:18.755Z,95510.95
2018-03-23T04:20:48.602Z,95515.95
2018-03-23T04:23:18.067Z,95514.91
2018-03-23T04:25:47.913Z,95516.63
2018-03-23T04:28:17.363Z,95519.27
2018-03-23T04:30:46.829Z,95516.09
2018-03-23T04:33:16.339Z,95518.92
2018-03-23T04:35:45.777Z,95514.05
2018-03-23T04:38:15.261Z,95512.23
2018-03-23T04:40:44.739Z,95507.86
2018-03-23T04:43:14.177Z,95510.09
2018-03-23T04:45:43.637Z,95502.50
2018-03-23T04:48:13.481Z,95504.41
2018-03-23T04:50:42.923Z,95505.11
2018-03-23T04:53:12.396Z,95504.30
2018-03-23T04:55:41.836Z,95496.17
2018-03-23T04:58:11.295Z,95495.95
2018-03-23T05:00:40.769Z,95495.53
2018-03-23T05:03:10.610Z,95491.68
2018-03-23T05:05:40.063Z,95494.81
2018-03-23T05:08:09.523Z,95494.31
2018-03-23T05:10:38.985Z,95488.83
2018-03-23T05:13:08.852Z,95490.17
2018-03-23T05:15:38.507Z,95484.94
2018-03-23T05:18:08.673Z,95487.95
2018-03-23T05:20:38.168Z,95488.97
2018-03-23T05:23:07.621Z,95485.52
2018-03-23T05:25:37.099Z,95489.08
2018-03-23T05:28:06.519Z,95486.98
2018-03-23T05:30:35.987Z,95486.67
2018-03-23T05:33:05.437Z,95489.66
2018-03-23T05:35:34.913Z,95482.22
2018-03-23T05:38:04.367Z,95482.63
2018-03-23T05:40:34.208Z,95479.66
2018-03-23T05:43:03.659Z,95473.37
2018-03-23T05:45:33.094Z,95473.63
2018-03-23T05:48:02.571Z,95471.45
2018-03-23T05:50:32.009Z,95469.91
2018-03-23T05:53:03.154Z,95471.45
2018-03-23T05:55:32.599Z,95463.64
2018-03-23T05:58:02.047Z,95462.49
2018-03-23T06:00:32.280Z,95468.17
2018-03-23T06:03:01.923Z,95470.78
2018-03-23T06:05:31.387Z,95471.37
2018-03-23T06:08:01.057Z,95470.56
2018-03-23T06:10:30.505Z,95467.79
2018-03-23T06:13:00.376Z,95461.73
2018-03-23T06:15:29.829Z,95468.02
2018-03-23T06:18:00.232Z,95470.62
2018-03-23T06:20:29.933Z,95466.84
2018-03-23T06:22:59.391Z,95465.09
2018-03-23T06:25:28.838Z,95462.38
2018-03-23T06:27:58.299Z,95459.63
2018-03-23T06:30:27.682Z,95455.26
2018-03-23T06:32:57.145Z,95454.55
2018-03-23T06:35:26.795Z,95456.17
2018-03-23T06:37:56.631Z,95443.17
2018-03-23T06:40:26.105Z,95445.72
2018-03-23T06:42:56.520Z,95453.36
2018-03-23T06:45:25.983Z,95449.55
2018-03-23T06:47:55.441Z,95453.42
2018-03-23T06:50:25.284Z,95451.54
2018-03-23T06:52:54.735Z,95451.94
2018-03-23T06:55:24.183Z,95451.02
2018-03-23T06:57:53.443Z,95457.05
2018-03-23T07:00:22.909Z,95456.34
2018-03-23T07:02:52.383Z,95445.13
2018-03-23T07:05:22.229Z,95453.06
2018-03-23T07:07:51.671Z,95440.58
2018-03-23T07:10:21.113Z,95440.80
2018-03-23T07:12:50.615Z,95445.42
2018-03-23T07:15:20.058Z,95446.01
2018-03-23T07:17:49.504Z,95440.97
2018-03-23T07:20:19.388Z,95447.58
2018-03-23T07:22:48.565Z,95447.11
2018-03-23T07:25:17.836Z,95441.36
2018-03-23T07:27:47.300Z,95446.94
2018-03-23T07:30:16.935Z,95443.31
2018-03-23T07:32:46.768Z,95440.14
2018-03-23T07:35:16.215Z,95438.30
2018-03-23T07:37:45.707Z,95439.81
2018-03-23T07:40:15.703Z,95440.87
2018-03-23T07:42:45.186Z,95435.78
2018-03-23T07:45:15.023Z,95439.34
2018-03-23T07:47:44.675Z,95435.16
2018-03-23T07:50:14.145Z,95436.05
2018-03-23T07:52:43.605Z,95432.98
2018-03-23T07:55:13.443Z,95429.65
2018-03-23T07:57:43.125Z,95431.56
2018-03-23T08:00:12.778Z,95426.44
2018-03-23T08:02:42.239Z,95426.91
2018-03-23T08:05:12.103Z,95421.75
2018-03-23T08:07:41.767Z,95426.14
2018-03-23T08:10:11.620Z,95421.83
2018-03-23T08:12:41.094Z,95424.52
2018-03-23T08:15:11.238Z,95421.03
2018-03-23T08:17:40.683Z,95420.81
2018-03-23T08:20:10.123Z,95413.25
2018-03-23T08:22:39.583Z,95416.69
2018-03-23T08:25:09.257Z,95418.47
2018-03-23T08:27:38.699Z,95421.44
2018-03-23T08:30:08.156Z,95419.22
2018-03-23T08:32:37.594Z,95420.72
2018-03-23T08:35:07.073Z,95417.48
2018-03-23T08:37:36.515Z,95414.99
2018-03-23T08:40:05.395Z,95404.47
2018-03-23T08:42:34.868Z,95402.20
2018-03-23T08:45:03.809Z,95396.45
2018-03-23T08:47:34.137Z,95391.66
2018-03-23T08:50:03.609Z,95390.50
2018-03-23T08:52:33.075Z,95387.92
2018-03-23T08:55:02.795Z,95382.67
2018-03-23T08:57:33.623Z,95389.49
2018-03-23T09:00:03.476Z,95386.17
2018-03-23T09:02:32.935Z,95381.56
2018-03-23T09:05:02.781Z,95379.47
2018-03-23T09:07:32.235Z,95384.70
2018-03-23T09:10:01.425Z,95385.78
2018-03-23T09:12:30.877Z,95380.38
2018-03-23T09:15:00.359Z,95368.75
2018-03-23T09:17:30.207Z,95367.95
2018-03-23T09:19:59.665Z,95364.03
2018-03-23T09:22:29.147Z,95356.64
2018-03-23T09:24:58.592Z,95361.97
2018-03-23T09:27:28.628Z,95359.87
2018-03-23T09:29:58.087Z,95354.80
2018-03-23T09:32:27.544Z,95360.92
2018-03-23T09:34:56.992Z,95354.05
2018-03-23T09:37:26.464Z,95362.41
2018-03-23T09:39:55.750Z,95356.65
2018-03-23T09:42:25.194Z,95353.69
2018-03-23T09:44:54.654Z,95346.12
2018-03-23T09:47:24.110Z,95348.67
2018-03-23T09:49:53.557Z,95348.11
2018-03-23T09:52:23.258Z,95332.44
2018-03-23T09:54:53.110Z,95331.03
2018-03-23T09:57:22.585Z,95329.95
2018-03-23T09:59:52.219Z,95319.02
2018-03-23T10:02:21.676Z,95317.77
2018-03-23T10:04:51.132Z,95314.34
2018-03-23T10:07:20.598Z,95310.51
2018-03-23T10:09:50.316Z,95302.85
2018-03-23T10:12:19.924Z,95297.83
2018-03-23T10:14:49.601Z,95295.11
2018-03-23T10:17:19.070Z,95290.25
2018-03-23T10:19:48.532Z,95288.54
2018-03-23T10:22:18.385Z,95284.67
2018-03-23T10:24:47.836Z,95283.13
2018-03-23T10:27:17.285Z,95283.72
2018-03-23T10:29:46.756Z,95281.98
2018-03-23T10:32:16.608Z,95282.55
2018-03-23T10:34:46.048Z,95276.75
2018-03-23T10:37:15.300Z,95268.79
2018-03-23T10:39:44.743Z,95259.52
2018-03-23T10:42:14.218Z,95262.61
2018-03-23T10:44:43.892Z,95265.50
2018-03-23T10:47:13.771Z,95263.17
2018-03-23T10:49:43.216Z,95265.52
2018-03-23T10:52:13.069Z,95269.96
2018-03-23T10:54:42.524Z,95261.42
2018-03-23T10:57:11.989Z,95255.52
2018-03-23T10:59:41.446Z,95258.89
2018-03-23T11:02:12.896Z,95252.31
2018-03-23T11:04:42.724Z,95246.77
2018-03-23T11:07:12.759Z,95245.79
2018-03-23T11:09:42.192Z,95244.86
2018-03-23T11:12:11.700Z,95237.35
2018-03-23T11:14:41.152Z,95232.66
2018-03-23T11:17:10.598Z,95233.18
2018-03-23T11:19:40.044Z,95234.77
2018-03-23T11:22:09.895Z,95232.16
2018-03-23T11:24:39.331Z,95226.95
2018-03-23T11:27:08.448Z,95228.89
2018-03-23T11:29:37.926Z,95216.72
2018-03-23T11:32:07.390Z,95216.97
2018-03-23T11:34:36.841Z,95219.55
2018-03-23T11:37:06.285Z,95208.44
2018-03-23T11:39:35.874Z,95211.59
2018-03-23T11:42:05.722Z,95204.52
2018-03-23T11:44:35.184Z,95200.01
2018-03-23T11:47:04.625Z,95196.91
2018-03-23T11:49:33.876Z,95196.70
2018-03-23T11:52:03.350Z,95195.46
2018-03-23T11:54:32.795Z,95182.86
2018-03-23T11:57:02.267Z,95183.74
2018-03-23T11:59:31.754Z,95181.09
2018-03-23T12:02:00.923Z,95173.64
2018-03-23T12:04:30.536Z,95186.70
2018-03-23T12:07:00.402Z,95173.84
2018-03-23T12:09:29.840Z,95169.19
2018-03-23T12:11:59.704Z,95167.52
2018-03-23T12:14:29.222Z,95161.34
2018-03-23T12:16:59.214Z,95151.28
2018-03-23T12:19:28.674Z,95144.12
2018-03-23T12:21:58.127Z,95128.65
2018-03-23T12:24:27.588Z,95130.58
2018-03-23T12:26:57.439Z,95130.92
2018-03-23T12:29:26.876Z,95136.48
2018-03-23T12:31:56.336Z,95130.36
2018-03-23T12:34:26.163Z,95124.20
2018-03-23T12:36:55.608Z,95124.86
2018-03-23T12:39:25.058Z,95119.85
2018-03-23T12:41:54.266Z,95120.25
2018-03-23T12:44:23.708Z,95106.94
2018-03-23T12:46:53.150Z,95100.56
2018-03-23T12:49:22.990Z,95100.67
2018-03-23T12:51:52.424Z,95090.86
2018-03-23T12:54:21.918Z,95092.54
2018-03-23T12:56:51.366Z,95091.26
2018-03-23T12:59:20.817Z,95078.59
2018-03-23T13:01:50.266Z,95073.47
2018-03-23T13:04:19.697Z,95064.96
2018-03-23T13:06:49.774Z,95062.34
2018-03-23T13:09:19.258Z,95051.86
2018-03-23T13:11:48.716Z,95049.14
2018-03-23T13:14:18.567Z,95045.42
2018-03-23T13:16:48.022Z,95040.58
2018-03-23T13:19:17.478Z,95039.66
2018-03-23T13:21:46.924Z,95039.24
2018-03-23T13:24:16.388Z,95044.75
2018-03-23T13:26:45.820Z,95033.16
2018-03-23T13:29:15.254Z,95038.25
2018-03-23T13:31:45.100Z,95029.56
2018-03-23T13:34:14.365Z,95030.63
2018-03-23T13:36:44.226Z,95025.33
2018-03-23T13:39:13.516Z,95027.55
2018-03-23T13:41:42.976Z,95024.16
2018-03-23T13:44:12.414Z,95011.72
2018-03-23T13:46:41.884Z,95012.48
2018-03-23T13:49:11.525Z,95012.52
2018-03-23T13:51:40.983Z,95006.95
2018-03-23T13:54:10.452Z,95000.14
2018-03-23T13:56:39.896Z,94999.27
2018-03-23T13:59:15.082Z,94990.86
2018-03-23T14:01:44.609Z,94995.38
2018-03-23T14:04:14.054Z,94995.12
2018-03-23T14:06:43.314Z,94991.23
2018-03-23T14:09:12.759Z,94984.06
2018-03-23T14:11:42.080Z,94977.80
2018-03-23T14:14:11.676Z,94975.30
2018-03-23T14:16:41.508Z,94960.61
2018-03-23T14:19:11.348Z,94962.23
2018-03-23T14:21:40.788Z,94959.01
2018-03-23T14:24:10.232Z,94954.34
2018-03-23T14:26:40.074Z,94948.44
2018-03-23T14:29:09.530Z,94954.83
2018-03-23T14:31:39.395Z,94952.09
2018-03-23T14:34:08.506Z,94951.78
2018-03-23T14:36:38.084Z,94951.74
2018-03-23T14:39:07.524Z,94955.22
2018-03-23T14:41:36.982Z,94950.05
2018-03-23T14:44:05.854Z,94949.64
2018-03-23T14:46:35.366Z,94937.11
2018-03-23T14:49:05.400Z,94942.94
2018-03-23T14:51:34.856Z,94935.51
2018-03-23T14:54:04.306Z,94940.88
2018-03-23T14:56:33.956Z,94931.66
2018-03-23T14:59:08.962Z,94930.09
2018-03-23T15:01:38.416Z,94932.53
2018-03-23T15:04:07.856Z,94935.53
2018-03-23T15:06:37.393Z,94931.58
2018-03-23T15:09:06.186Z,94922.95
2018-03-23T15:11:35.619Z,94925.06
2018-03-23T15:14:15.772Z,94907.98
2018-03-23T15:16:44.994Z,94915.39
2018-03-23T15:19:14.524Z,94915.47
2018-03-23T15:21:44.026Z,94902.41
2018-03-23T15:24:13.626Z,94901.20
2018-03-23T15:26:43.095Z,94902.70
2018-03-23T15:29:12.568Z,94901.80
2018-03-23T15:31:42.088Z,94894.79
2018-03-23T15:34:11.627Z,94896.80
2018-03-23T15:36:41.562Z,94896.02
2018-03-23T15:39:10.793Z,94883.50
2018-03-23T15:41:40.230Z,94882.52
2018-03-23T15:44:09.720Z,94880.56
2018-03-23T15:46:39.214Z,94875.57
2018-03-23T15:49:08.953Z,94882.08
2018-03-23T15:51:38.820Z,94880.55
2018-03-23T15:54:08.411Z,94868.20
2018-03-23T15:56:37.856Z,94871.58
2018-03-23T15:59:07.387Z,94868.73
2018-03-23T16:01:37.230Z,94868.23
2018-03-23T16:04:06.751Z,94866.79
2018-03-23T16:06:36.245Z,94864.88
2018-03-23T16:09:05.990Z,94862.39
2018-03-23T16:11:35.512Z,94864.94
2018-03-23T16:14:05.094Z,94861.83
2018-03-23T16:16:34.747Z,94862.21
2018-03-23T16:19:04.776Z,94859.42
2018-03-23T16:21:34.357Z,94857.68
2018-03-23T16:24:03.990Z,94857.66
2018-03-23T16:26:33.565Z,94854.22
2018-03-23T16:29:03.002Z,94853.27
2018-03-23T16:31:32.835Z,94850.05
2018-03-23T16:34:02.663Z,94852.16
2018-03-23T16:36:32.187Z,94849.23
2018-03-23T16:39:01.653Z,94854.24
2018-03-23T16:41:31.719Z,94849.47
2018-03-23T16:44:01.293Z,94854.88
2018-03-23T16:46:30.785Z,94857.80
2018-03-23T16:49:00.280Z,94849.30
2018-03-23T16:51:29.974Z,94844.73
2018-03-23T16:54:00.075Z,94840.53
2018-03-23T16:56:30.154Z,94842.22
2018-03-23T16:58:59.685Z,94840.77
2018-03-23T17:01:29.277Z,94837.72
2018-03-23T17:03:58.973Z,94839.75
2018-03-23T17:06:28.680Z,94841.33
2018-03-23T17:08:58.185Z,94842.02
2018-03-23T17:11:27.655Z,94834.86
2018-03-23T17:13:57.229Z,94829.66
2018-03-23T17:16:26.711Z,94838.81
2018-03-23T17:18:56.343Z,94835.76
2018-03-23T17:21:25.976Z,94836.41
2018-03-23T17:23:55.919Z,94837.27
2018-03-23T17:26:26.571Z,94841.27
2018-03-23T17:28:56.048Z,94843.83
2018-03-23T17:31:26.098Z,94845.86
2018-03-23T17:33:55.623Z,94835.83
2018-03-23T17:36:25.478Z,94829.59
2018-03-23T17:38:55.218Z,94824.83
2018-03-23T17:41:25.525Z,94827.36
2018-03-23T17:43:55.038Z,94823.70
2018-03-23T17:46:25.137Z,94824.95
2018-03-23T17:48:54.737Z,94818.58
2018-03-23T17:51:24.085Z,94823.53
2018-03-23T17:53:53.642Z,94824.31
2018-03-23T17:56:23.168Z,94824.19
2018-03-23T17:58:52.577Z,94820.16
2018-03-23T18:01:22.339Z,94830.66
2018-03-23T18:03:51.925Z,94822.34
2018-03-23T18:06:21.746Z,94827.02
2018-03-23T18:08:51.534Z,94817.94
2018-03-23T18:11:21.343Z,94827.17
2018-03-23T18:13:51.137Z,94821.16
2018-03-23T18:16:20.721Z,94828.03
2018-03-23T18:18:50.535Z,94821.30
2018-03-23T18:21:20.717Z,94817.66
2018-03-23T18:23:50.541Z,94816.11
2018-03-23T18:26:20.161Z,94820.22
2018-03-23T18:28:50.142Z,94824.67
2018-03-23T18:31:19.795Z,94824.12
2018-03-23T18:33:49.347Z,94818.32
2018-03-23T18:36:20.303Z,94823.55
2018-03-23T18:38:49.963Z,94820.41
2018-03-23T18:41:19.783Z,94818.33
2018-03-23T18:43:50.927Z,94813.48
2018-03-23T18:46:20.937Z,94815.59
2018-03-23T18:48:50.773Z,94817.31
2018-03-23T18:51:20.993Z,94814.06
2018-03-23T18:53:50.873Z,94811.58
2018-03-23T18:56:20.959Z,94816.03
2018-03-23T18:58:50.511Z,94811.80
2018-03-23T19:01:20.262Z,94821.84
2018-03-23T19:03:50.487Z,94813.38
2018-03-23T19:06:20.113Z,94815.64
2018-03-23T19:08:49.943Z,94807.53
2018-03-23T19:11:19.586Z,94806.58
2018-03-23T19:13:49.439Z,94806.98
2018-03-23T19:16:19.275Z,94803.11
2018-03-23T19:18:48.915Z,94805.25
2018-03-23T19:21:18.550Z,94803.48
2018-03-23T19:23:48.637Z,94802.34
2018-03-23T19:26:18.905Z,94802.14
2018-03-23T19:28:48.766Z,94793.28
2018-03-23T19:31:19.221Z,94795.80
2018-03-23T19:33:49.403Z,94788.08
2018-03-23T19:36:19.069Z,94784.80
2018-03-23T19:38:49.353Z,94777.45
2018-03-23T19:41:19.409Z,94775.73
2018-03-23T19:43:49.667Z,94781.87
2018-03-23T19:46:19.175Z,94778.00
2018-03-23T19:48:48.940Z,94775.52
2018-03-23T19:51:18.720Z,94775.70
2018-03-23T19:53:48.665Z,94773.00
2018-03-23T19:56:17.861Z,94772.77
2018-03-23T19:58:47.363Z,94772.58
2018-03-23T20:01:17.123Z,94775.62
2018-03-23T20:03:46.535Z,94774.47
2018-03-23T20:06:16.153Z,94768.84
2018-03-23T20:08:45.937Z,94766.88
2018-03-23T20:11:15.589Z,94766.84
2018-03-23T20:16:45.057Z,94761.44
2018-03-23T20:19:14.933Z,94753.94
2018-03-23T20:21:44.601Z,94751.80
2018-03-23T20:24:19.437Z,94753.94
2018-03-23T20:26:48.485Z,94754.33
2018-03-23T20:29:18.419Z,94750.50
2018-03-23T20:31:53.411Z,94746.61
2018-03-23T20:34:22.867Z,94749.14
2018-03-23T20:36:52.341Z,94746.36
2018-03-23T20:39:21.819Z,94747.55
2018-03-23T20:41:51.281Z,94747.56
2018-03-23T20:44:20.735Z,94750.04
2018-03-23T20:46:50.205Z,94750.10
2018-03-23T20:49:19.701Z,94747.20
2018-03-23T20:51:49.175Z,94741.78
2018-03-23T20:54:18.633Z,94742.34
2018-03-23T20:56:48.132Z,94739.98
2018-03-23T20:59:17.397Z,94734.95
2018-03-23T21:01:47.451Z,94735.59
2018-03-23T21:04:16.961Z,94731.73
2018-03-23T21:06:46.432Z,94731.80
2018-03-23T21:09:16.307Z,94726.77
2018-03-23T21:11:46.007Z,94723.94
2018-03-23T21:14:15.349Z,94723.65
2018-03-23T21:16:45.240Z,94716.95
2018-03-23T21:19:14.912Z,94718.69
2018-03-23T21:21:44.384Z,94715.86
2018-03-23T21:24:14.251Z,94718.44
2018-03-23T21:26:44.184Z,94718.09
2018-03-23T21:29:13.710Z,94712.28
2018-03-23T21:35:19.395Z,94712.59
2018-03-23T21:37:49.550Z,94706.78
2018-03-23T21:40:19.323Z,94699.39
2018-03-23T21:42:49.076Z,94698.12
2018-03-23T21:45:18.744Z,94693.69
2018-03-23T21:47:48.938Z,94692.66
2018-03-23T21:50:18.844Z,94697.58
2018-03-23T21:52:48.476Z,94692.97
2018-03-23T21:55:20.391Z,94693.19
2018-03-23T21:57:55.573Z,94690.23
2018-03-23T22:00:30.798Z,94696.25
2018-03-23T22:03:00.664Z,94683.83
2018-03-23T22:05:30.192Z,94682.72
2018-03-23T22:07:59.789Z,94679.91
2018-03-23T22:10:29.350Z,94678.17
2018-03-23T22:12:58.836Z,94665.72
2018-03-23T22:15:28.290Z,94660.58
2018-03-23T22:17:57.758Z,94662.31
2018-03-23T22:20:27.241Z,94658.23
2018-03-23T22:22:56.706Z,94652.38
2018-03-23T22:25:26.186Z,94648.97
2018-03-23T22:27:55.892Z,94645.98
2018-03-23T22:30:25.773Z,94648.05
2018-03-23T22:32:55.620Z,94640.75
2018-03-23T22:35:25.516Z,94642.67
2018-03-23T22:37:54.992Z,94638.35
2018-03-23T22:40:25.226Z,94631.84
2018-03-23T22:42:54.680Z,94629.52
2018-03-23T22:45:24.315Z,94623.95
2018-03-23T22:47:53.828Z,94623.02
2018-03-23T22:50:23.279Z,94617.66
2018-03-23T22:52:52.728Z,94622.08
2018-03-23T22:55:22.187Z,94614.80
2018-03-23T22:57:51.646Z,94613.13
2018-03-23T23:00:20.552Z,94604.72
2018-03-23T23:02:50.012Z,94608.52
2018-03-23T23:05:19.862Z,94604.98
2018-03-23T23:07:49.340Z,94602.29
2018-03-23T23:10:20.069Z,94602.77
2018-03-23T23:12:49.932Z,94602.84
2018-03-23T23:15:19.380Z,94597.55
2018-03-23T23:17:49.240Z,94589.89
2018-03-23T23:20:18.692Z,94594.49
2018-03-23T23:22:48.562Z,94590.96
2018-03-23T23:25:18.034Z,94580.86
2018-03-23T23:27:47.494Z,94589.79
2018-03-23T23:30:16.945Z,94587.44
2018-03-23T23:32:46.414Z,94582.06
2018-03-23T23:35:15.872Z,94577.17
2018-03-23T23:37:45.364Z,94576.94
2018-03-23T23:40:14.840Z,94575.58
2018-03-23T23:42:44.684Z,94571.58
2018-03-23T23:45:14.144Z,94570.45
2018-03-23T23:47:43.600Z,94561.36
2018-03-23T23:50:13.046Z,94558.59
2018-03-23T23:52:42.528Z,94558.77
2018-03-23T23:55:12.065Z,94551.19
2018-03-23T23:57:41.506Z,94541.58
